Time;durP1;ratioP1;P1;durP2;ratioP2;P2;SDS_P1;SDS_P2;PMS_P1;PMS_P2;Temp;Humidity;BMP_temperature;BMP_pressure;BME280_temperature;BME280_humidity;BME280_pressure;Samples;Min_cycle;Max_cycle;Signal;HPM_P1;HPM_P2
2021/08/06 00:02:03;;;;;;;6.13;5.05;;;;;;;13.44;100.00;100542.81;4988094;28;20076;-85
2021/08/06 00:04:29;;;;;;;9.35;4.90;;;;;;;13.37;100.00;100533.97;4986262;28;20037;-85
2021/08/06 00:06:54;;;;;;;6.57;5.07;;;;;;;13.31;100.00;100529.38;4986123;28;20515;-85
2021/08/06 00:09:20;;;;;;;6.38;5.00;;;;;;;13.25;100.00;100512.41;4999290;28;20034;-85
2021/08/06 00:11:45;;;;;;;5.60;4.28;;;;;;;13.30;100.00;100524.22;4985403;28;20053;-85
2021/08/06 00:14:11;;;;;;;7.30;4.30;;;;;;;13.29;100.00;100519.97;4984975;28;20062;-85
2021/08/06 00:16:36;;;;;;;8.15;5.18;;;;;;;13.18;100.00;100514.06;4987993;28;20432;-83
2021/08/06 00:19:03;;;;;;;5.18;4.63;;;;;;;13.21;100.00;100518.19;4982418;28;20093;-85
2021/08/06 00:21:29;;;;;;;9.65;5.28;;;;;;;13.16;100.00;100523.13;5015813;28;20038;-85
2021/08/06 00:23:55;;;;;;;6.68;5.32;;;;;;;13.12;100.00;100513.94;4993522;28;20034;-82
2021/08/06 00:26:20;;;;;;;6.85;5.88;;;;;;;13.14;100.00;100528.56;4996684;28;20036;-83
2021/08/06 00:28:46;;;;;;;10.43;6.50;;;;;;;13.13;100.00;100520.81;4993728;28;20039;-83
2021/08/06 00:31:12;;;;;;;10.77;6.65;;;;;;;13.14;100.00;100525.13;5002360;28;20026;-84
2021/08/06 00:33:39;;;;;;;9.70;6.80;;;;;;;13.13;100.00;100519.03;4988352;28;20064;-84
2021/08/06 00:36:07;;;;;;;9.18;6.68;;;;;;;13.14;100.00;100520.66;4989501;28;20022;-82
2021/08/06 00:38:32;;;;;;;10.35;7.32;;;;;;;13.20;100.00;100521.78;5001861;28;20065;-83
2021/08/06 00:41:00;;;;;;;11.30;7.57;;;;;;;13.16;100.00;100507.31;5012584;28;20033;-82
2021/08/06 00:43:27;;;;;;;9.70;7.68;;;;;;;13.34;100.00;100518.50;4991825;28;20037;-84
2021/08/06 00:45:55;;;;;;;12.23;9.02;;;;;;;13.35;100.00;100519.31;5006054;28;20049;-84
2021/08/06 00:48:26;;;;;;;11.25;8.70;;;;;;;13.36;100.00;100502.53;4996822;28;20068;-84
2021/08/06 00:50:55;;;;;;;12.00;8.95;;;;;;;13.55;100.00;100510.00;4999301;28;20029;-84
2021/08/06 00:53:22;;;;;;;13.52;9.73;;;;;;;13.54;100.00;100499.63;4980367;28;20030;-85
2021/08/06 00:55:49;;;;;;;11.07;8.95;;;;;;;13.60;100.00;100510.34;4990674;28;20057;-84
2021/08/06 00:58:20;;;;;;;10.10;8.48;;;;;;;13.57;100.00;100507.22;5025678;28;20033;-84
2021/08/06 01:00:48;;;;;;;18.67;9.30;;;;;;;13.60;100.00;100494.53;4990265;28;20443;-83
2021/08/06 01:03:23;;;;;;;10.75;8.93;;;;;;;13.73;100.00;100501.03;4990372;28;20025;-85
2021/08/06 01:05:58;;;;;;;11.98;8.40;;;;;;;13.82;100.00;100507.91;5004489;28;20033;-83
2021/08/06 01:08:49;;;;;;;8.90;8.02;;;;;;;13.82;100.00;100510.53;5002379;28;20134;-83
2021/08/06 01:11:21;;;;;;;10.95;8.60;;;;;;;13.78;100.00;100502.16;4984840;28;20041;-83
2021/08/06 01:13:56;;;;;;;15.52;8.75;;;;;;;13.86;100.00;100503.09;5002122;28;20061;-84
2021/08/06 01:16:31;;;;;;;12.70;8.90;;;;;;;13.84;100.00;100513.81;4990410;28;20059;-83
2021/08/06 01:19:34;;;;;;;9.43;8.48;;;;;;;13.85;100.00;100512.03;4987625;28;20033;-83
2021/08/06 01:22:13;;;;;;;10.65;7.70;;;;;;;13.77;100.00;100507.63;4976830;28;20045;-85
2021/08/06 01:24:43;;;;;;;13.65;8.23;;;;;;;13.79;100.00;100501.16;4993008;28;20049;-81
2021/08/06 01:27:10;;;;;;;10.50;8.15;;;;;;;13.76;100.00;100492.78;4999484;28;20033;-84
2021/08/06 01:29:36;;;;;;;16.45;8.25;;;;;;;13.85;100.00;100493.56;5015139;28;20071;-84
2021/08/06 01:32:05;;;;;;;10.05;8.32;;;;;;;13.80;100.00;100499.34;4992765;28;20025;-82
2021/08/06 01:34:31;;;;;;;11.48;8.98;;;;;;;13.81;100.00;100506.28;4991046;28;20041;-82
2021/08/06 01:36:57;;;;;;;10.32;9.00;;;;;;;13.82;100.00;100508.75;4986792;28;20026;-85
2021/08/06 01:39:39;;;;;;;10.43;9.32;;;;;;;13.82;100.00;100508.75;4987129;28;20046;-83
2021/08/06 01:42:08;;;;;;;11.80;9.45;;;;;;;13.81;100.00;100507.09;4983177;28;20079;-83
2021/08/06 01:44:52;;;;;;;11.35;8.98;;;;;;;13.80;100.00;100509.91;5001636;28;20099;-82
2021/08/06 01:47:27;;;;;;;12.75;8.85;;;;;;;13.76;100.00;100513.88;5000611;28;20467;-84
2021/08/06 01:50:05;;;;;;;10.13;8.90;;;;;;;13.72;100.00;100516.03;4996836;28;20037;-84
2021/08/06 01:52:38;;;;;;;11.15;8.70;;;;;;;13.73;100.00;100514.22;4979964;28;20030;-83
2021/08/06 01:55:10;;;;;;;12.05;10.25;;;;;;;13.75;100.00;100506.94;5004990;28;20052;-82
2021/08/06 01:57:49;;;;;;;10.77;8.65;;;;;;;13.61;100.00;100500.59;4984452;28;20065;-84
2021/08/06 02:00:15;;;;;;;15.60;9.95;;;;;;;13.63;100.00;100506.53;5000067;28;20038;-84
2021/08/06 02:02:44;;;;;;;10.65;8.50;;;;;;;13.61;100.00;100503.25;4992618;28;20531;-82
2021/08/06 02:05:16;;;;;;;9.95;8.30;;;;;;;13.65;100.00;100501.09;4990844;28;20041;-84
2021/08/06 02:07:44;;;;;;;11.40;9.80;;;;;;;13.62;100.00;100504.91;4982006;28;20040;-83
2021/08/06 02:10:10;;;;;;;11.55;9.52;;;;;;;13.64;100.00;100497.63;4982953;28;20042;-84
2021/08/06 02:12:37;;;;;;;13.55;9.00;;;;;;;13.69;100.00;100497.09;5006267;28;20045;-85
2021/08/06 02:15:07;;;;;;;15.57;9.15;;;;;;;13.67;100.00;100497.28;4985013;28;20030;-83
2021/08/06 02:17:37;;;;;;;10.23;9.18;;;;;;;13.69;100.00;100505.00;5003553;28;20120;-84
2021/08/06 02:20:24;;;;;;;15.57;9.60;;;;;;;13.69;100.00;100511.09;5003851;28;20041;-84
2021/08/06 02:22:54;;;;;;;15.98;10.00;;;;;;;13.67;100.00;100509.63;4987976;28;20779;-85
2021/08/06 02:25:22;;;;;;;15.15;9.48;;;;;;;13.65;100.00;100512.44;5006951;28;20041;-85
2021/08/06 02:27:52;;;;;;;11.32;9.38;;;;;;;13.66;100.00;100508.81;4980680;28;20038;-84
2021/08/06 02:30:21;;;;;;;11.50;9.32;;;;;;;13.65;100.00;100509.81;4999846;28;20042;-84
2021/08/06 02:32:52;;;;;;;11.85;9.52;;;;;;;13.61;100.00;100503.25;4996483;28;20092;-86
2021/08/06 02:35:18;;;;;;;13.07;10.00;;;;;;;13.72;100.00;100502.03;5006711;28;20030;-85
2021/08/06 02:37:45;;;;;;;11.70;9.48;;;;;;;13.71;100.00;100508.28;4983092;28;20734;-86
2021/08/06 02:40:11;;;;;;;12.07;9.82;;;;;;;13.80;100.00;100510.72;4982873;28;20045;-85
2021/08/06 02:42:37;;;;;;;12.05;10.77;;;;;;;13.80;100.00;100494.88;4998436;28;20125;-85
2021/08/06 02:45:04;;;;;;;15.65;11.15;;;;;;;13.91;100.00;100498.13;4999154;28;20465;-84
2021/08/06 02:47:30;;;;;;;17.48;11.93;;;;;;;13.88;100.00;100501.97;5017357;28;20045;-85
2021/08/06 02:49:56;;;;;;;18.52;12.07;;;;;;;13.97;100.00;100510.63;5017706;28;20651;-83
2021/08/06 02:52:21;;;;;;;16.67;10.73;;;;;;;13.93;100.00;100511.97;4999693;28;20492;-85
2021/08/06 02:54:47;;;;;;;14.43;11.25;;;;;;;13.93;100.00;100504.88;5000292;28;20065;-84
2021/08/06 02:57:13;;;;;;;15.18;10.57;;;;;;;13.97;100.00;100495.59;4998496;28;20389;-85
2021/08/06 02:59:39;;;;;;;16.90;11.43;;;;;;;13.95;100.00;100494.97;4982216;28;20086;-84
2021/08/06 03:02:05;;;;;;;13.90;10.68;;;;;;;13.91;100.00;100480.50;4993102;28;20565;-84
2021/08/06 03:04:31;;;;;;;17.45;10.93;;;;;;;13.92;100.00;100490.06;5014443;28;20096;-85
2021/08/06 03:07:00;;;;;;;18.35;11.68;;;;;;;13.91;100.00;100485.78;5014750;28;20121;-84
2021/08/06 03:09:26;;;;;;;18.60;10.88;;;;;;;13.85;100.00;100483.84;5009519;28;20128;-84
2021/08/06 03:11:52;;;;;;;14.27;10.85;;;;;;;13.91;100.00;100484.97;4990491;28;20511;-84
2021/08/06 03:14:19;;;;;;;12.80;10.02;;;;;;;13.84;100.00;100471.63;4998404;28;20030;-84
2021/08/06 03:16:45;;;;;;;15.05;10.77;;;;;;;13.85;100.00;100468.03;4998574;28;20026;-82
2021/08/06 03:19:10;;;;;;;11.52;10.32;;;;;;;14.00;100.00;100474.19;4982946;28;20377;-84
2021/08/06 03:21:36;;;;;;;16.70;11.68;;;;;;;13.98;100.00;100475.34;4998745;28;20059;-85
2021/08/06 03:24:03;;;;;;;17.58;10.98;;;;;;;13.99;100.00;100476.97;4982278;28;20033;-83
2021/08/06 03:26:29;;;;;;;12.18;10.88;;;;;;;13.92;100.00;100468.13;4990922;28;20064;-84
2021/08/06 03:28:55;;;;;;;15.65;12.73;;;;;;;13.91;100.00;100467.31;4998919;28;20091;-83
2021/08/06 03:31:21;;;;;;;14.82;10.90;;;;;;;13.88;100.00;100472.97;5005050;28;20038;-85
2021/08/06 03:33:47;;;;;;;16.38;11.80;;;;;;;13.85;100.00;100473.28;5002430;28;20495;-84
2021/08/06 03:36:14;;;;;;;12.07;10.43;;;;;;;13.82;100.00;100468.34;5002716;28;20052;-83
2021/08/06 03:38:41;;;;;;;12.82;10.85;;;;;;;13.88;100.00;100474.75;4976766;28;20468;-83
2021/08/06 03:41:06;;;;;;;13.35;11.10;;;;;;;13.91;100.00;100466.50;4999031;28;20060;-84
2021/08/06 03:43:32;;;;;;;15.13;11.25;;;;;;;13.86;100.00;100459.09;4982930;28;20447;-85
2021/08/06 03:45:57;;;;;;;18.45;11.25;;;;;;;13.85;100.00;100456.66;4998133;28;20030;-83
2021/08/06 03:48:23;;;;;;;12.57;10.63;;;;;;;13.73;100.00;100454.44;5015456;28;20552;-84
2021/08/06 03:50:49;;;;;;;13.48;10.57;;;;;;;13.76;100.00;100464.59;4998933;28;20029;-83
2021/08/06 03:53:16;;;;;;;10.77;9.68;;;;;;;13.73;100.00;100451.78;4995922;28;20033;-83
2021/08/06 03:55:43;;;;;;;12.80;10.70;;;;;;;13.71;100.00;100461.69;5012723;28;20415;-85
2021/08/06 03:58:10;;;;;;;13.95;10.02;;;;;;;13.69;100.00;100454.94;4985162;28;20419;-82
2021/08/06 04:00:38;;;;;;;12.25;11.05;;;;;;;13.71;100.00;100460.84;5002809;28;20037;-85
2021/08/06 04:03:05;;;;;;;11.32;10.15;;;;;;;13.54;100.00;100439.03;4990752;28;20104;-84
2021/08/06 04:05:32;;;;;;;13.75;10.73;;;;;;;13.64;100.00;100450.19;4982391;28;20104;-84
2021/08/06 04:07:58;;;;;;;14.80;11.30;;;;;;;13.64;100.00;100450.19;4983240;28;20038;-85
2021/08/06 04:10:25;;;;;;;14.88;10.15;;;;;;;13.65;100.00;100451.00;4999670;28;20129;-83
2021/08/06 04:12:51;;;;;;;11.65;10.30;;;;;;;13.74;100.00;100452.59;4998801;28;20060;-84
2021/08/06 04:15:18;;;;;;;12.18;10.90;;;;;;;13.77;100.00;100454.91;5015180;28;20034;-84
2021/08/06 04:17:44;;;;;;;15.10;10.60;;;;;;;13.71;100.00;100448.50;5015463;28;20447;-84
2021/08/06 04:20:10;;;;;;;15.75;10.32;;;;;;;13.75;100.00;100447.16;4979829;28;20037;-85
2021/08/06 04:22:37;;;;;;;11.90;10.48;;;;;;;13.77;100.00;100442.53;4997665;28;20092;-83
2021/08/06 04:25:03;;;;;;;12.45;10.57;;;;;;;13.80;100.00;100442.16;4998635;28;20026;-83
2021/08/06 04:27:29;;;;;;;13.48;11.32;;;;;;;13.73;100.00;100428.06;5004041;28;20141;-84
2021/08/06 04:29:54;;;;;;;11.95;10.55;;;;;;;13.76;100.00;100432.16;5006524;28;20085;-83
2021/08/06 04:32:20;;;;;;;11.73;10.38;;;;;;;13.80;100.00;100436.09;4988233;28;20034;-84
2021/08/06 04:34:46;;;;;;;13.73;12.32;;;;;;;13.79;100.00;100431.81;4996002;28;20104;-83
2021/08/06 04:37:11;;;;;;;14.15;11.93;;;;;;;13.83;100.00;100435.75;4981786;28;20033;-85
2021/08/06 04:39:37;;;;;;;16.35;12.27;;;;;;;13.73;100.00;100421.97;5012323;28;20049;-84
2021/08/06 04:42:03;;;;;;;12.82;11.50;;;;;;;13.81;100.00;100433.28;4998312;28;20504;-85
2021/08/06 04:44:32;;;;;;;13.30;11.55;;;;;;;13.81;100.00;100430.63;5023182;28;20029;-85
2021/08/06 04:46:58;;;;;;;16.60;12.25;;;;;;;13.87;100.00;100423.84;5000631;28;20038;-83
2021/08/06 04:49:23;;;;;;;17.08;12.50;;;;;;;13.91;100.00;100427.75;4997931;28;20041;-84
2021/08/06 04:51:50;;;;;;;15.50;13.13;;;;;;;13.98;100.00;100433.97;4998964;28;20035;-83
2021/08/06 04:54:15;;;;;;;15.82;13.40;;;;;;;14.03;100.00;100425.53;4982491;28;20026;-84
2021/08/06 04:56:41;;;;;;;15.57;12.85;;;;;;;14.10;100.00;100425.66;4999360;28;20105;-84
2021/08/06 04:59:09;;;;;;;15.80;13.35;;;;;;;14.12;100.00;100416.56;5013157;28;20479;-83
2021/08/06 05:01:35;;;;;;;16.02;12.43;;;;;;;14.25;100.00;100415.16;4987896;28;20040;-84
2021/08/06 05:04:01;;;;;;;16.10;12.73;;;;;;;14.32;100.00;100416.88;4987048;28;20037;-83
2021/08/06 05:06:27;;;;;;;18.63;13.90;;;;;;;14.33;100.00;100421.16;4997341;28;20504;-84
2021/08/06 05:08:53;;;;;;;13.05;11.70;;;;;;;14.35;100.00;100408.63;4997189;28;20125;-83
2021/08/06 05:11:19;;;;;;;17.40;13.23;;;;;;;14.34;100.00;100404.34;5013401;28;20057;-82
2021/08/06 05:13:45;;;;;;;15.07;12.80;;;;;;;14.39;100.00;100403.78;4982303;28;20542;-83
2021/08/06 05:16:11;;;;;;;15.05;13.10;;;;;;;14.42;100.00;100414.00;4981252;28;20033;-83
2021/08/06 05:18:38;;;;;;;14.15;12.07;;;;;;;14.49;100.00;100409.63;4979558;28;20038;-85
2021/08/06 05:21:05;;;;;;;18.67;12.70;;;;;;;14.53;100.00;100410.91;4994799;28;20040;-84
2021/08/06 05:23:31;;;;;;;14.35;12.85;;;;;;;14.54;100.00;100412.56;4993042;28;20037;-84
2021/08/06 05:25:57;;;;;;;14.95;12.68;;;;;;;14.51;100.00;100399.72;4989544;28;20034;-84
2021/08/06 05:28:23;;;;;;;13.77;12.25;;;;;;;14.64;100.00;100408.88;4981649;28;20034;-85
2021/08/06 05:30:48;;;;;;;12.48;11.05;;;;;;;14.62;100.00;100403.78;4992817;28;20511;-85
2021/08/06 05:33:14;;;;;;;13.90;11.45;;;;;;;14.71;100.00;100404.50;5003889;28;20047;-83
2021/08/06 05:35:40;;;;;;;13.25;10.43;;;;;;;14.81;100.00;100404.25;5009707;28;20037;-84
2021/08/06 05:38:06;;;;;;;12.35;9.65;;;;;;;14.84;100.00;100391.47;5022063;28;20037;-83
2021/08/06 05:40:33;;;;;;;10.02;9.10;;;;;;;14.99;100.00;100396.75;4981901;28;20038;-83
2021/08/06 05:43:02;;;;;;;11.23;9.43;;;;;;;15.03;100.00;100392.75;4983954;28;20025;-83
2021/08/06 05:45:29;;;;;;;12.00;9.43;;;;;;;15.11;100.00;100381.25;5000201;28;20040;-83
2021/08/06 05:47:56;;;;;;;9.35;8.45;;;;;;;15.16;100.00;100392.91;4999410;28;20095;-84
2021/08/06 05:50:28;;;;;;;9.95;9.05;;;;;;;15.21;100.00;100389.69;5008512;28;20042;-83
2021/08/06 05:52:55;;;;;;;8.63;7.85;;;;;;;15.30;100.00;100391.22;4997691;28;20029;-83
2021/08/06 05:55:21;;;;;;;8.55;7.75;;;;;;;15.43;100.00;100395.84;5005109;28;20480;-84
2021/08/06 05:57:54;;;;;;;7.85;7.07;;;;;;;15.46;100.00;100394.66;4994134;28;20120;-83
2021/08/06 06:00:20;;;;;;;8.27;7.22;;;;;;;15.54;100.00;100392.72;4999426;28;20115;-83
2021/08/06 06:02:53;;;;;;;8.73;7.13;;;;;;;15.62;100.00;100390.97;5001630;28;20041;-83
2021/08/06 06:05:38;;;;;;;9.25;7.07;;;;;;;15.66;100.00;100397.50;4992967;28;20034;-83
2021/08/06 06:08:04;;;;;;;7.88;6.95;;;;;;;15.72;99.74;100400.19;4997974;28;20381;-82
2021/08/06 06:10:30;;;;;;;8.15;7.30;;;;;;;15.75;100.00;100399.06;5010770;28;20029;-82
2021/08/06 06:12:56;;;;;;;9.18;7.00;;;;;;;15.82;100.00;100405.19;4984639;28;20522;-84
2021/08/06 06:15:22;;;;;;;7.53;6.60;;;;;;;15.94;99.83;100393.13;4992996;28;20026;-84
2021/08/06 06:17:48;;;;;;;6.93;6.18;;;;;;;15.91;100.00;100382.09;4981289;28;20029;-82
2021/08/06 06:20:15;;;;;;;7.00;6.30;;;;;;;16.09;100.00;100398.34;4994078;28;20045;-84
2021/08/06 06:22:41;;;;;;;9.57;6.35;;;;;;;16.14;99.30;100395.94;5005653;28;20488;-83
2021/08/06 06:25:08;;;;;;;7.60;6.32;;;;;;;16.17;97.50;100400.03;4994381;28;20027;-82
2021/08/06 06:27:35;;;;;;;7.15;6.45;;;;;;;16.31;97.50;100399.13;4999800;28;20041;-82
2021/08/06 06:30:01;;;;;;;8.60;6.43;;;;;;;16.33;97.00;100389.16;5013752;28;20029;-82
2021/08/06 06:32:26;;;;;;;10.25;5.90;;;;;;;16.42;95.03;100397.75;4982098;28;20041;-81
2021/08/06 06:34:52;;;;;;;6.30;5.45;;;;;;;16.32;94.05;100379.56;4978378;28;20141;-83
2021/08/06 06:37:18;;;;;;;7.22;5.50;;;;;;;16.39;95.62;100386.72;5009946;28;20057;-83
2021/08/06 06:39:44;;;;;;;8.75;6.50;;;;;;;16.51;96.88;100395.78;4997623;28;20026;-82
2021/08/06 06:42:09;;;;;;;8.07;5.60;;;;;;;16.65;94.48;100401.97;4993336;28;20081;-84
2021/08/06 06:44:37;;;;;;;6.72;5.50;;;;;;;16.72;94.04;100389.59;4999493;28;20416;-81
2021/08/06 06:47:03;;;;;;;6.22;5.68;;;;;;;16.77;93.25;100389.84;4980144;28;20034;-80
2021/08/06 06:49:29;;;;;;;6.55;5.95;;;;;;;16.87;94.03;100387.66;4996098;28;20097;-81
2021/08/06 06:51:54;;;;;;;9.70;5.32;;;;;;;17.02;93.27;100400.78;4996376;28;20041;-80
2021/08/06 06:54:21;;;;;;;8.93;4.80;;;;;;;17.09;91.69;100387.56;4995299;28;20117;-81
2021/08/06 06:56:47;;;;;;;7.95;5.30;;;;;;;17.07;92.18;100384.31;4979286;28;20059;-82
2021/08/06 06:59:12;;;;;;;5.50;5.00;;;;;;;17.19;91.00;100388.00;4994365;28;20080;-81
2021/08/06 07:01:38;;;;;;;6.72;4.45;;;;;;;17.37;91.84;100394.59;4998317;28;20498;-81
2021/08/06 07:04:04;;;;;;;5.35;4.85;;;;;;;17.49;90.15;100391.16;5004384;28;20563;-81
2021/08/06 07:06:29;;;;;;;7.28;4.35;;;;;;;17.61;90.92;100391.41;4979142;28;20045;-81
2021/08/06 07:08:55;;;;;;;4.93;4.43;;;;;;;17.80;88.69;100395.09;4980087;28;20117;-82
2021/08/06 07:11:21;;;;;;;4.60;4.03;;;;;;;17.83;87.32;100386.72;4979067;28;20026;-82
2021/08/06 07:13:47;;;;;;;4.55;4.15;;;;;;;17.76;88.11;100391.19;5011693;28;20033;-83
2021/08/06 07:16:12;;;;;;;5.10;4.60;;;;;;;17.78;89.51;100386.53;4995858;28;20037;-81
2021/08/06 07:18:40;;;;;;;4.63;4.22;;;;;;;17.86;87.06;100386.34;5011050;28;20080;-83
2021/08/06 07:21:10;;;;;;;4.68;4.28;;;;;;;18.01;86.16;100391.47;4999847;28;20042;-82
2021/08/06 07:23:36;;;;;;;7.43;4.22;;;;;;;18.12;85.89;100395.34;5015544;28;20037;-82
2021/08/06 07:26:01;;;;;;;5.97;4.40;;;;;;;18.17;85.00;100382.25;4995839;28;20035;-82
2021/08/06 07:28:27;;;;;;;4.90;4.05;;;;;;;18.21;85.73;100380.00;5018828;28;20108;-83
2021/08/06 07:30:53;;;;;;;7.18;3.67;;;;;;;18.42;86.29;100385.09;5014801;28;20029;-83
2021/08/06 07:33:18;;;;;;;4.40;4.00;;;;;;;18.40;84.49;100365.09;5014874;28;20109;-82
2021/08/06 07:35:44;;;;;;;5.22;3.95;;;;;;;18.61;84.40;100386.09;5014082;28;20141;-83
2021/08/06 07:38:10;;;;;;;4.93;4.10;;;;;;;18.76;83.80;100382.34;5020972;28;20485;-82
2021/08/06 07:40:37;;;;;;;5.63;4.22;;;;;;;18.71;82.94;100377.69;5006961;28;20034;-82
2021/08/06 07:43:03;;;;;;;3.97;3.67;;;;;;;18.80;82.50;100376.47;4982407;28;20105;-82
2021/08/06 07:45:28;;;;;;;4.15;3.50;;;;;;;18.93;81.94;100380.09;4983043;28;20057;-82
2021/08/06 07:47:54;;;;;;;3.80;3.28;;;;;;;18.98;82.64;100381.09;4999168;28;20033;-82
2021/08/06 07:50:20;;;;;;;4.32;3.70;;;;;;;19.24;81.20;100395.28;4999838;28;20044;-83
2021/08/06 07:52:46;;;;;;;3.92;3.53;;;;;;;19.31;82.65;100392.59;5017593;28;20116;-83
2021/08/06 07:55:13;;;;;;;3.80;3.50;;;;;;;19.45;82.77;100392.31;4999626;28;20046;-81
2021/08/06 07:57:40;;;;;;;4.43;3.70;;;;;;;19.52;79.36;100386.97;5007261;28;20038;-81
2021/08/06 08:00:07;;;;;;;4.03;3.63;;;;;;;19.57;81.01;100388.97;4998899;28;20036;-82
2021/08/06 08:02:42;;;;;;;3.42;3.13;;;;;;;19.80;81.01;100393.78;5017375;28;20065;-83
2021/08/06 08:05:12;;;;;;;10.00;3.90;;;;;;;19.83;81.04;100394.16;5025044;28;20491;-82
2021/08/06 08:07:38;;;;;;;6.03;3.17;;;;;;;19.89;78.43;100404.94;4999311;28;20034;-82
2021/08/06 08:10:05;;;;;;;3.67;3.38;;;;;;;19.84;78.03;100395.78;4986444;28;20032;-82
2021/08/06 08:12:31;;;;;;;3.90;3.45;;;;;;;19.90;79.91;100387.97;5016872;28;20042;-82
2021/08/06 08:14:57;;;;;;;3.38;3.08;;;;;;;19.95;77.88;100388.13;4982573;28;20385;-82
2021/08/06 08:17:23;;;;;;;3.50;3.20;;;;;;;20.01;78.85;100390.72;4995088;28;20599;-81
2021/08/06 08:19:49;;;;;;;6.68;3.28;;;;;;;20.14;79.61;100387.16;4993124;28;20120;-80
2021/08/06 08:22:15;;;;;;;3.33;3.03;;;;;;;20.23;79.10;100372.53;5000305;28;20038;-79
2021/08/06 08:24:44;;;;;;;3.55;3.25;;;;;;;20.41;78.90;100377.03;5016437;28;20586;-81
2021/08/06 08:27:10;;;;;;;3.17;2.88;;;;;;;20.60;76.10;100371.78;5017194;28;20404;-81
2021/08/06 08:29:35;;;;;;;2.88;2.67;;;;;;;20.71;72.84;100378.22;5000478;28;20040;-82
2021/08/06 08:32:01;;;;;;;4.00;2.40;;;;;;;20.76;71.79;100362.38;5012043;28;20037;-82
2021/08/06 08:34:26;;;;;;;2.35;2.15;;;;;;;20.92;73.46;100364.41;4985552;28;20080;-82
2021/08/06 08:36:52;;;;;;;2.17;1.92;;;;;;;20.94;72.27;100364.19;4989010;28;20454;-79
2021/08/06 08:39:19;;;;;;;5.70;2.30;;;;;;;20.87;68.36;100366.13;5009298;28;20412;-80
2021/08/06 08:41:46;;;;;;;1.98;1.88;;;;;;;20.83;67.92;100364.97;5013957;28;20068;-81
2021/08/06 08:44:11;;;;;;;2.13;1.92;;;;;;;20.95;71.45;100363.19;5017261;28;20116;-80
2021/08/06 08:46:38;;;;;;;2.88;1.98;;;;;;;20.98;68.22;100374.22;4990014;28;20038;-81
2021/08/06 08:49:04;;;;;;;2.13;2.00;;;;;;;21.13;69.76;100372.97;5011903;28;20091;-82
2021/08/06 08:51:34;;;;;;;3.72;2.00;;;;;;;21.25;68.92;100370.34;4984632;28;20583;-79
2021/08/06 08:54:01;;;;;;;3.20;2.10;;;;;;;21.25;66.01;100368.53;4977079;28;20041;-80
2021/08/06 08:56:30;;;;;;;1.95;1.85;;;;;;;21.11;68.99;100367.88;4993876;28;20030;-81
2021/08/06 08:58:57;;;;;;;3.10;1.80;;;;;;;21.15;66.07;100366.41;4996892;28;20101;-82
2021/08/06 09:01:23;;;;;;;3.60;1.98;;;;;;;21.26;67.23;100366.66;4982698;28;20124;-80
2021/08/06 09:03:49;;;;;;;2.75;2.10;;;;;;;21.36;65.98;100356.25;4984111;28;20075;-83
2021/08/06 09:06:42;;;;;;;3.97;2.17;;;;;;;21.54;67.81;100366.09;5010718;28;20072;-80
2021/08/06 09:09:21;;;;;;;3.83;2.00;;;;;;;21.63;65.44;100364.72;4984003;28;20038;-81
2021/08/06 09:12:11;;;;;;;2.10;2.00;;;;;;;21.59;64.09;100360.88;4998260;28;20133;-82
2021/08/06 09:15:00;;;;;;;2.28;2.00;;;;;;;21.50;64.46;100356.91;5002982;28;20128;-83
2021/08/06 09:17:26;;;;;;;2.50;1.92;;;;;;;21.69;64.91;100355.78;5007093;28;20061;-82
2021/08/06 09:19:58;;;;;;;2.28;1.90;;;;;;;21.89;66.10;100344.81;5014011;28;20025;-81
2021/08/06 09:22:40;;;;;;;2.13;1.92;;;;;;;22.17;64.27;100344.13;4993933;28;20030;-81
2021/08/06 09:25:14;;;;;;;1.80;1.70;;;;;;;22.25;63.59;100344.81;4998828;28;20054;-82
2021/08/06 09:27:48;;;;;;;2.22;1.88;;;;;;;22.26;62.89;100344.59;5000645;28;20046;-83
2021/08/06 09:30:34;;;;;;;2.08;1.83;;;;;;;22.38;62.52;100349.94;4980602;28;20030;-81
2021/08/06 09:33:01;;;;;;;3.85;1.90;;;;;;;22.31;62.31;100343.91;5011122;28;20034;-82
2021/08/06 09:35:29;;;;;;;2.05;1.95;;;;;;;22.43;62.35;100327.84;4984506;28;20034;-80
2021/08/06 09:37:56;;;;;;;2.35;1.90;;;;;;;22.60;61.58;100334.09;4976556;28;20104;-81
2021/08/06 09:40:27;;;;;;;1.92;1.83;;;;;;;22.82;62.01;100344.94;4983839;28;20037;-82
2021/08/06 09:42:58;;;;;;;2.85;2.00;;;;;;;22.70;61.81;100336.97;4998800;28;20040;-81
2021/08/06 09:45:27;;;;;;;3.45;1.98;;;;;;;22.56;61.49;100340.94;5023321;28;20045;-81
2021/08/06 09:47:57;;;;;;;2.70;2.03;;;;;;;22.61;60.41;100341.06;5024952;28;20116;-81
2021/08/06 09:50:31;;;;;;;3.67;1.80;;;;;;;22.76;61.20;100337.09;5000087;28;20033;-83
2021/08/06 09:52:57;;;;;;;3.03;1.80;;;;;;;22.88;59.62;100341.31;5010871;28;20030;-81
2021/08/06 09:55:32;;;;;;;2.03;1.88;;;;;;;23.05;60.65;100330.72;4999225;28;20045;-81
2021/08/06 09:58:00;;;;;;;2.17;1.98;;;;;;;23.11;61.21;100335.13;4986189;28;20040;-82
2021/08/06 10:00:27;;;;;;;2.47;1.90;;;;;;;23.18;63.43;100323.47;4986011;28;20037;-81
2021/08/06 10:02:54;;;;;;;2.05;1.95;;;;;;;23.25;60.77;100324.13;5015561;28;20034;-81
2021/08/06 10:05:22;;;;;;;3.97;2.20;;;;;;;23.15;60.49;100326.59;5025051;28;20033;-81
2021/08/06 10:07:54;;;;;;;3.80;2.30;;;;;;;23.26;59.73;100325.72;5007364;28;20112;-80
2021/08/06 10:10:22;;;;;;;2.05;1.95;;;;;;;23.21;58.50;100320.31;4998521;28;20033;-81
2021/08/06 10:12:49;;;;;;;2.10;2.00;;;;;;;23.27;57.39;100312.13;4998180;28;20041;-82
2021/08/06 10:15:16;;;;;;;2.15;2.00;;;;;;;23.18;58.06;100315.44;5015845;28;20041;-82
2021/08/06 10:17:42;;;;;;;2.83;1.98;;;;;;;23.19;58.54;100312.53;5015369;28;20041;-83
2021/08/06 10:20:11;;;;;;;2.38;2.17;;;;;;;23.57;62.51;100311.00;5015900;28;20034;-81
2021/08/06 10:22:37;;;;;;;3.15;2.05;;;;;;;23.83;57.56;100303.41;5016118;28;20404;-82
2021/08/06 10:25:12;;;;;;;4.20;2.63;;;;;;;23.82;60.41;100309.81;5004886;28;20044;-81
2021/08/06 10:27:41;;;;;;;2.30;2.20;;;;;;;23.64;56.69;100313.50;5017023;28;20040;-84
2021/08/06 10:30:11;;;;;;;3.33;2.50;;;;;;;23.57;56.48;100304.84;5011279;28;20037;-84
2021/08/06 10:32:38;;;;;;;3.38;2.10;;;;;;;23.76;58.29;100305.41;4991340;28;20048;-84
2021/08/06 10:35:05;;;;;;;2.40;2.20;;;;;;;23.91;56.92;100300.31;5024247;28;20116;-84
2021/08/06 10:37:43;;;;;;;2.42;2.22;;;;;;;24.03;58.90;100300.22;4984257;28;20068;-82
2021/08/06 10:40:08;;;;;;;2.60;2.25;;;;;;;24.33;58.17;100299.81;4997849;28;20026;-84
2021/08/06 10:42:34;;;;;;;2.67;2.47;;;;;;;24.59;58.58;100300.16;4999134;28;20037;-84
2021/08/06 10:45:00;;;;;;;3.00;2.70;;;;;;;24.40;55.03;100295.06;4994933;28;20038;-81
2021/08/06 10:47:49;;;;;;;8.65;2.60;;;;;;;24.06;56.26;100297.84;4998938;28;20042;-79
2021/08/06 10:50:17;;;;;;;2.80;2.60;;;;;;;24.35;56.49;100311.09;5006756;28;20029;-78
2021/08/06 10:52:42;;;;;;;2.75;2.50;;;;;;;24.43;55.79;100301.78;5014638;28;20045;-82
2021/08/06 10:55:17;;;;;;;7.88;2.60;;;;;;;24.38;54.03;100299.06;4998608;28;20038;-79
2021/08/06 10:57:42;;;;;;;2.60;2.40;;;;;;;24.10;55.39;100298.97;5002581;28;20034;-80
2021/08/06 11:00:10;;;;;;;2.75;2.50;;;;;;;23.86;55.91;100306.38;4984569;28;20049;-79
2021/08/06 11:02:37;;;;;;;3.60;2.65;;;;;;;23.76;55.96;100290.16;5016571;28;20048;-80
2021/08/06 11:05:29;;;;;;;3.05;2.67;;;;;;;23.75;57.80;100290.41;4998583;28;20404;-79
2021/08/06 11:07:56;;;;;;;3.00;2.70;;;;;;;24.20;56.28;100289.44;5011917;28;20033;-80
2021/08/06 11:10:51;;;;;;;3.20;2.90;;;;;;;24.09;57.03;100289.31;5004148;28;20034;-80
2021/08/06 11:13:32;;;;;;;3.25;2.80;;;;;;;24.05;57.47;100288.22;5012966;28;20120;-81
2021/08/06 11:16:09;;;;;;;2.80;2.60;;;;;;;24.00;57.93;100285.44;5001507;28;20034;-80
2021/08/06 11:18:41;;;;;;;3.40;2.80;;;;;;;24.24;58.55;100278.00;5001777;28;20041;-80
2021/08/06 11:21:06;;;;;;;3.60;3.30;;;;;;;24.72;56.87;100275.63;5000197;28;20404;-79